Flight Track Log - Related Links

Times and Time Zones

All times are in EST time to prevent confusion due to time zone crossing. See the EGF3005 flight status page for this flight to view local times or setup timezone preferences in your user account.

Time Position Orientation Groundspeed Altitude Reporting Facility
EST Latitude Longitude Course Direction KTS MPH feet Rate Location/Type
Tue 10:49:04 PM 41.9667 -87.9500 289° West 171 197 2,500  Level Chicago TRACON
Tue 10:50:04 PM 41.9667 -88.0333 270° West 192 221 4,900 955 Climbing Chicago TRACON
Tue 10:51:00 PM 42.0340 -88.2620 289° West  Level Estimated
Tue 10:51:41 PM 41.9586 -88.1478 265° West 218 251 5,000  Level Chicago Center
Tue 10:52:00 PM 42.0511 -88.3805 282° West  Level Estimated
Tue 10:52:42 PM 41.9769 -88.2311 287° West 243 280 7,600  Level Chicago Center
Tue 10:53:00 PM 42.0808 -88.4946 289° West  Level FlightAware Approximate
Tue 10:53:43 PM 42.0128 -88.3392 294° West 261 300 10,500  Level Chicago Center
Tue 10:54:00 PM 42.0964 -88.6067 289° West  Level Estimated
Tue 10:54:44 PM 42.0444 -88.4389 293° West 280 322 11,900  Level Chicago Center
Tue 10:55:45 PM 42.0806 -88.5525 293° West 319 367 13,400 1,426 Climbing Chicago Center
Tue 10:56:46 PM 42.1186 -88.6689 294° West 339 390 14,800 1,426 Climbing Chicago Center
Tue 10:57:47 PM 42.1583 -88.7878 294° West 347 399 16,300 1,403 Climbing Chicago Center
Tue 10:58:50 PM 42.1783 -88.9189 282° West 348 400 17,700 1,366 Climbing Chicago Center
Tue 10:59:50 PM 42.1925 -89.0467 279° West 345 397 19,100 1,388 Climbing Chicago Center
Tue 11:00:51 PM 42.2086 -89.1767 280° West 350 403 20,500 1,317 Climbing Chicago Center
Tue 11:01:53 PM 42.2250 -89.3097 279° West 357 411 21,800 738 Climbing Chicago Center
Tue 11:02:53 PM 42.2408 -89.4450 279° West 364 419 22,000 99 Climbing Chicago Center
Tue 11:03:54 PM 42.2586 -89.5844 280° West 375 432 22,000  Level Chicago Center
Tue 11:04:54 PM 42.2767 -89.7261 280° West 381 438 22,000  Level Chicago Center
Tue 11:05:55 PM 42.2925 -89.8628 279° West 373 429 22,000  Level Chicago Center
Tue 11:06:57 PM 42.3086 -90.0044 279° West 358 412 22,000  Level Chicago Center
Tue 11:07:57 PM 42.3242 -90.1369 279° West 359 413 22,000  Level Chicago Center
Tue 11:08:57 PM 42.3389 -90.2703 279° West 361 415 22,000  Level Chicago Center
Tue 11:09:58 PM 42.3547 -90.4058 279° West 368 423 22,000  Level Chicago Center
Tue 11:10:59 PM 42.3683 -90.5392 278° West 362 417 22,000 -590 Level Chicago Center
Tue 11:12:00 PM 42.3836 -90.6731 279° West 363 418 20,800 -1,785 Descending Chicago Center
Tue 11:13:00 PM 42.4011 -90.8311 279° West 357 411 18,400 -2,231 Descending Chicago Center
Tue 11:14:01 PM 42.4156 -90.9631 278° West 356 410 16,300 -2,016 Descending Chicago Center
Tue 11:15:02 PM 42.4283 -91.0908 278° West 347 399 14,300 -1,983 Descending Chicago Center
Tue 11:16:02 PM 42.4408 -91.2114 278° West 328 377 12,300 -1,785 Descending Chicago Center
Tue 11:17:03 PM 42.4539 -91.3325 278° West 325 374 10,700 -1,279 Descending Chicago Center
Tue 11:18:04 PM 42.4642 -91.4306 278° West 282 325 9,700 -1,525 Descending Chicago Center
Tue 11:19:05 PM 42.4758 -91.5211 280° West 258 297 7,600 -1,983 Descending Chicago Center
Tue 11:20:05 PM 42.5208 -91.5967 309° West 258 297 5,700 -1,736 Descending Chicago Center
Tue 11:21:06 PM 42.5642 -91.6697 309° West 254 292 4,100 -836 Descending Chicago Center
Tue 11:22:07 PM 42.6106 -91.7417 311° West 252 290 4,000 -50 Descending Chicago Center
Tue 11:23:07 PM 42.6558 -91.8150 310° West 252 290 4,000  Level Chicago Center
Tue 11:24:08 PM 42.7025 -91.8869 311° West 253 291 4,000  Level Chicago Center
Tue 11:25:09 PM 42.7489 -91.9617 310° West 255 293 4,000  Level Chicago Center
Tue 11:26:09 PM 42.7953 -92.0356 311° West 257 296 4,000  Level Chicago Center
Tue 11:27:10 PM 42.8281 -92.1156 299° West 255 293 4,000  Level Chicago Center
Tue 11:28:11 PM 42.8494 -92.1992 289° West 241 277 4,000 50 Level Chicago Center
Tue 11:29:11 PM 42.8683 -92.2872 286° West 241 277 4,100  Climbing Chicago Center
Tue 11:30:12 PM 42.8475 -92.3914 255° West 237 273 4,000  Descending Chicago Center
Tue 11:31:13 PM 42.8331 -92.4767 257° West 236 272 4,100  Climbing Chicago Center
Tue 11:32:13 PM 42.8183 -92.5633 257° West 236 272 4,000 -50 Descending Chicago Center
Tue 11:33:14 PM 42.7736 -92.6081 216° Southwest 238 274 4,000  Level Chicago Center
Tue 11:34:15 PM 42.7128 -92.5936 170° South 241 277 4,000  Level Chicago Center
Tue 11:35:15 PM 42.6706 -92.5547 146° Southeast 207 238 4,000 50 Level Chicago Center
Tue 11:36:16 PM 42.6314 -92.5269 152° Southeast 179 206 4,100  Climbing Chicago Center
Tue 11:37:17 PM 42.6092 -92.4639 116° Southeast 201 231 4,000 -50 Descending Chicago Center
Tue 11:38:17 PM 42.6703 -92.4383 17° North 228 262 4,000  Level Chicago Center
Tue 11:39:18 PM 42.7178 -92.4664 337° Northwest 219 252 4,000  Level Chicago Center
Tue 11:40:19 PM 42.7392 -92.5436 291° West 217 250 4,000  Level Chicago Center
Tue 11:41:19 PM 42.7592 -92.6328 287° West 233 268 4,000 50 Level Chicago Center
Tue 11:42:20 PM 42.7019 -92.6578 198° South 228 262 4,100  Climbing Chicago Center
Tue 11:43:20 PM 42.6719 -92.6008 126° Southeast 201 231 4,000 -347 Descending Chicago Center
Tue 11:44:21 PM 42.6425 -92.5486 127° Southeast 186 214 3,400 -689 Descending Chicago Center
Tue 11:45:22 PM 42.6161 -92.5025 128° Southeast 172 198 2,600 -744 Descending Chicago Center
Tue 11:46:22 PM 42.5936 -92.4633 128° Southeast 153 176 1,900 -545 Descending Chicago Center
Tue 11:47:23 PM 42.5736 -92.4261 126° Southeast 146 168 1,500 -393 Descending Chicago Center
Tue 11:49:00 PM 42.5500 -92.4000 130° Southeast  Level FlightAware Approximate

Login

Don't have an account? Register now (free) for customized features, flight alerts, and more!